Time;durP1;ratioP1;P1;durP2;ratioP2;P2;SDS_P1;SDS_P2;PMS_P1;PMS_P2;Temp;Humidity;BMP_temperature;BMP_pressure;BME280_temperature;BME280_humidity;BME280_pressure;Samples;Min_cycle;Max_cycle;Signal;HPM_P1;HPM_P2
2022/05/19 00:01:51;;;;;;;2.93;2.27;;;20.10;97.30;;;;;;4940148;29;20460;-87
2022/05/19 00:04:16;;;;;;;4.87;3.67;;;20.10;98.30;;;;;;4948011;28;20444;-86
2022/05/19 00:06:42;;;;;;;3.60;3.10;;;19.90;98.40;;;;;;4939825;29;20437;-85
2022/05/19 00:09:08;;;;;;;2.87;2.60;;;19.80;99.00;;;;;;4937070;29;20212;-86
2022/05/19 00:11:34;;;;;;;7.17;2.67;;;19.70;98.50;;;;;;4934176;29;20193;-87
2022/05/19 00:14:00;;;;;;;4.40;2.40;;;21.40;99.90;;;;;;4934590;29;20441;-86
2022/05/19 00:16:26;;;;;;;7.27;3.03;;;19.60;98.50;;;;;;4940585;29;20196;-85
2022/05/19 00:18:52;;;;;;;7.13;3.77;;;19.60;99.50;;;;;;4950822;29;20441;-86
2022/05/19 00:21:18;;;;;;;2.77;2.47;;;19.50;98.30;;;;;;4940494;29;20823;-87
2022/05/19 00:23:43;;;;;;;4.67;2.57;;;19.50;98.60;;;;;;4936614;29;20193;-88
2022/05/19 00:26:09;;;;;;;6.10;2.73;;;19.50;98.40;;;;;;4937234;29;20449;-84
2022/05/19 00:28:34;;;;;;;4.03;2.70;;;19.50;98.30;;;;;;4935593;29;20229;-85
2022/05/19 00:31:00;;;;;;;5.60;3.20;;;;;;;;;;4941098;29;20213;-84
2022/05/19 00:33:26;;;;;;;4.50;2.83;;;19.50;98.80;;;;;;4933475;29;20204;-85
2022/05/19 00:35:51;;;;;;;3.03;2.53;;;19.40;98.90;;;;;;4941069;29;20476;-87
2022/05/19 00:38:17;;;;;;;4.40;2.83;;;19.30;99.00;;;;;;4935340;29;20188;-88
2022/05/19 00:40:51;;;;;;;6.23;3.27;;;19.30;99.30;;;;;;4937856;29;20189;-86
2022/05/19 00:43:35;;;;;;;2.37;1.97;;;19.40;98.80;;;;;;4942730;29;20200;-86
2022/05/19 00:46:07;;;;;;;5.00;2.70;;;19.20;98.10;;;;;;4952843;29;20528;-85
2022/05/19 00:48:53;;;;;;;9.13;2.73;;;19.30;98.40;;;;;;4934338;29;20465;-87
2022/05/19 00:51:20;;;;;;;3.50;2.50;;;19.20;98.10;;;;;;4950579;29;20456;-86
2022/05/19 00:53:54;;;;;;;2.80;2.50;;;19.20;98.40;;;;;;4935572;29;20434;-81
2022/05/19 00:56:33;;;;;;;8.40;3.30;;;19.20;98.20;;;;;;4929134;29;20518;-82
2022/05/19 00:59:11;;;;;;;5.40;2.73;;;19.10;98.10;;;;;;4928489;29;20959;-84
2022/05/19 01:01:42;;;;;;;6.80;3.27;;;19.10;98.40;;;;;;4928672;29;20570;-81
2022/05/19 01:04:34;;;;;;;3.07;2.40;;;19.10;98.60;;;;;;4936241;29;20447;-81
2022/05/19 01:07:05;;;;;;;3.67;2.70;;;19.00;98.70;;;;;;4930692;29;20499;-85
2022/05/19 01:09:35;;;;;;;6.37;2.63;;;18.90;99.30;;;;;;4930434;29;20476;-84
2022/05/19 01:12:02;;;;;;;4.40;3.17;;;20.00;99.90;;;;;;4926908;29;20548;-83
2022/05/19 01:14:27;;;;;;;7.57;2.77;;;18.80;99.40;;;;;;4932710;29;20437;-84
2022/05/19 01:16:53;;;;;;;5.37;3.10;;;18.70;99.90;;;;;;4928204;29;20545;-83
2022/05/19 01:19:31;;;;;;;4.17;2.80;;;18.60;99.90;;;;;;4928220;29;20558;-83
2022/05/19 01:22:01;;;;;;;3.23;2.20;;;18.50;99.90;;;;;;4926327;29;20212;-85
2022/05/19 01:24:35;;;;;;;3.87;2.77;;;18.40;99.90;;;;;;4943692;29;20444;-85
2022/05/19 01:27:02;;;;;;;6.97;3.07;;;18.40;99.90;;;;;;4927495;29;20452;-85
2022/05/19 01:29:29;;;;;;;4.00;3.07;;;18.40;99.90;;;;;;4934491;29;20528;-86
2022/05/19 01:31:56;;;;;;;2.73;2.40;;;18.30;99.90;;;;;;4932407;29;20457;-87
2022/05/19 01:34:24;;;;;;;3.67;2.30;;;18.20;99.90;;;;;;4930924;29;20444;-87
2022/05/19 01:36:50;;;;;;;2.70;2.50;;;18.20;99.90;;;;;;4935577;29;20464;-87
2022/05/19 01:39:24;;;;;;;2.77;2.33;;;19.20;99.90;;;;;;4938464;29;20783;-86
2022/05/19 01:41:52;;;;;;;8.20;2.73;;;18.10;99.90;;;;;;4931820;29;20458;-87
2022/05/19 01:44:28;;;;;;;4.67;2.60;;;18.20;99.90;;;;;;4932235;29;20477;-86
2022/05/19 01:47:02;;;;;;;4.00;2.80;;;18.10;99.90;;;;;;4947002;29;20448;-85
2022/05/19 01:49:45;;;;;;;3.70;3.07;;;18.00;99.90;;;;;;4931507;29;20528;-82
2022/05/19 01:52:38;;;;;;;7.13;2.90;;;18.00;99.90;;;;;;4937713;28;20460;-86
2022/05/19 01:55:29;;;;;;;3.50;2.90;;;17.90;99.90;;;;;;4934237;29;20451;-86
2022/05/19 01:58:15;;;;;;;3.20;2.53;;;17.80;99.90;;;;;;4933637;29;20537;-83
2022/05/19 02:00:43;;;;;;;3.50;2.83;;;17.70;99.90;;;;;;4935308;29;20437;-83
2022/05/19 02:03:41;;;;;;;4.93;3.63;;;17.60;99.90;;;;;;4935479;29;20463;-84
2022/05/19 02:06:15;;;;;;;9.20;3.30;;;17.60;99.90;;;;;;4913076;29;20510;-84
2022/05/19 02:08:56;;;;;;;2.93;2.57;;;18.40;99.90;;;;;;4940177;29;20867;-84
2022/05/19 02:11:29;;;;;;;8.23;3.17;;;17.50;99.90;;;;;;4932408;29;20434;-86
2022/05/19 02:13:57;;;;;;;3.53;2.80;;;17.40;99.90;;;;;;4934969;29;20465;-85
2022/05/19 02:16:24;;;;;;;3.80;2.77;;;17.40;99.90;;;;;;4936250;29;20947;-84
2022/05/19 02:18:50;;;;;;;3.40;2.97;;;17.40;99.90;;;;;;4927752;29;20445;-84
2022/05/19 02:21:17;;;;;;;6.00;3.23;;;17.40;99.90;;;;;;4930415;29;20433;-84
2022/05/19 02:23:45;;;;;;;5.63;3.30;;;17.40;99.90;;;;;;4925109;29;20963;-83
2022/05/19 02:26:10;;;;;;;4.13;3.17;;;17.40;99.90;;;;;;4926921;29;20441;-85
2022/05/19 02:28:46;;;;;;;5.23;3.57;;;17.40;99.90;;;;;;4934287;29;20477;-85
2022/05/19 02:31:12;;;;;;;4.33;3.30;;;17.40;99.90;;;;;;4944275;28;20654;-84
2022/05/19 02:33:38;;;;;;;5.70;2.80;;;17.40;99.90;;;;;;4933800;29;20473;-86
2022/05/19 02:36:04;;;;;;;5.13;3.10;;;17.30;99.90;;;;;;4922874;29;20494;-85
2022/05/19 02:38:30;;;;;;;4.80;2.83;;;17.20;99.90;;;;;;4942859;29;20194;-85
2022/05/19 02:40:56;;;;;;;6.47;2.90;;;17.20;99.90;;;;;;4927236;29;20441;-82
2022/05/19 02:43:22;;;;;;;5.30;2.53;;;17.10;99.90;;;;;;4934049;29;20456;-84
2022/05/19 02:45:47;;;;;;;4.97;2.73;;;17.10;99.90;;;;;;4925635;29;20264;-84
2022/05/19 02:48:15;;;;;;;3.10;2.60;;;17.00;99.90;;;;;;4930044;29;20210;-83
2022/05/19 02:50:42;;;;;;;3.20;2.90;;;17.00;99.90;;;;;;4936886;29;20900;-84
2022/05/19 02:53:10;;;;;;;4.00;3.13;;;17.00;99.90;;;;;;4938501;29;20492;-84
2022/05/19 02:55:36;;;;;;;3.00;2.70;;;17.00;99.90;;;;;;4938700;29;20476;-83
2022/05/19 02:58:02;;;;;;;2.93;2.60;;;16.90;99.90;;;;;;4927513;29;20440;-82
2022/05/19 03:00:27;;;;;;;4.80;2.83;;;16.90;99.90;;;;;;4936440;29;20473;-84
2022/05/19 03:02:56;;;;;;;5.60;2.40;;;16.80;99.90;;;;;;4939893;29;20775;-86
2022/05/19 03:05:25;;;;;;;4.80;2.90;;;16.90;99.90;;;;;;4929426;29;20182;-83
2022/05/19 03:07:51;;;;;;;3.33;2.70;;;16.80;99.90;;;;;;4927576;29;20476;-84
2022/05/19 03:10:17;;;;;;;4.50;3.00;;;16.80;99.90;;;;;;4928743;29;20437;-83
2022/05/19 03:12:43;;;;;;;3.63;3.10;;;16.80;99.90;;;;;;4929797;29;20738;-81
2022/05/19 03:15:10;;;;;;;3.10;2.80;;;16.70;99.90;;;;;;4931373;29;20444;-83
2022/05/19 03:17:35;;;;;;;3.67;2.53;;;16.70;99.90;;;;;;4927331;29;20488;-83
2022/05/19 03:20:01;;;;;;;3.70;2.67;;;16.60;99.90;;;;;;4925094;29;20535;-85
2022/05/19 03:22:27;;;;;;;5.03;3.30;;;16.60;99.90;;;;;;4928137;29;20216;-83
2022/05/19 03:24:53;;;;;;;7.30;3.30;;;16.50;99.90;;;;;;4926491;29;20190;-83
2022/05/19 03:27:20;;;;;;;3.97;3.20;;;16.40;99.90;;;;;;4929092;29;20450;-81
2022/05/19 03:29:47;;;;;;;4.27;2.50;;;16.40;99.90;;;;;;4931669;29;20488;-83
2022/05/19 03:32:13;;;;;;;5.23;2.50;;;16.40;99.90;;;;;;4943730;28;21115;-83
2022/05/19 03:34:38;;;;;;;13.03;3.53;;;16.30;99.90;;;;;;4930570;29;20509;-82
2022/05/19 03:37:05;;;;;;;4.40;2.90;;;16.30;99.90;;;;;;4931187;29;20433;-84
2022/05/19 03:39:33;;;;;;;6.67;2.73;;;16.30;99.90;;;;;;4930236;29;20181;-81
2022/05/19 03:41:59;;;;;;;4.33;3.00;;;16.30;99.90;;;;;;4930217;29;20505;-85
2022/05/19 03:44:25;;;;;;;3.90;3.47;;;16.30;99.90;;;;;;4939838;29;20448;-83
2022/05/19 03:46:50;;;;;;;3.13;2.50;;;16.30;99.90;;;;;;4935516;29;20190;-83
2022/05/19 03:49:16;;;;;;;4.70;3.03;;;16.30;99.90;;;;;;4927995;29;20197;-84
2022/05/19 03:51:42;;;;;;;6.77;2.47;;;16.30;99.90;;;;;;4936380;29;20203;-84
2022/05/19 03:54:08;;;;;;;3.83;2.90;;;16.40;99.90;;;;;;4933853;29;20193;-83
2022/05/19 03:56:34;;;;;;;4.77;3.33;;;16.50;99.90;;;;;;4928724;29;20460;-85
2022/05/19 03:59:00;;;;;;;4.67;3.30;;;16.50;99.90;;;;;;4938766;29;21008;-87
2022/05/19 04:01:26;;;;;;;4.13;2.80;;;16.70;99.90;;;;;;4929667;29;20513;-87
2022/05/19 04:03:51;;;;;;;5.17;3.67;;;16.70;99.90;;;;;;4937857;29;20201;-88
2022/05/19 04:06:18;;;;;;;6.40;2.90;;;16.60;99.90;;;;;;4944173;29;20416;-90
2022/05/19 04:08:44;;;;;;;7.03;3.90;;;16.50;99.90;;;;;;4939537;29;20212;-85
2022/05/19 04:11:10;;;;;;;6.63;3.43;;;;;;;;;;4942393;29;20493;-85
2022/05/19 04:13:36;;;;;;;5.57;3.67;;;16.60;99.90;;;;;;4937768;29;20531;-86
2022/05/19 04:16:01;;;;;;;4.93;3.93;;;16.40;99.90;;;;;;4937587;29;20476;-88
2022/05/19 04:18:27;;;;;;;6.70;3.60;;;;;;;;;;4934129;29;20185;-88
2022/05/19 04:20:53;;;;;;;4.70;2.70;;;16.80;99.90;;;;;;4930173;29;20200;-88
2022/05/19 04:23:19;;;;;;;7.00;3.17;;;17.00;99.90;;;;;;4932379;29;20464;-87
2022/05/19 04:25:45;;;;;;;4.20;3.27;;;17.30;99.90;;;;;;4941256;29;20432;-84
2022/05/19 04:28:11;;;;;;;3.93;3.20;;;17.60;99.90;;;;;;4927049;29;20919;-83
2022/05/19 04:30:36;;;;;;;8.60;3.10;;;18.20;99.90;;;;;;4921686;29;20511;-82
2022/05/19 04:33:03;;;;;;;6.27;3.80;;;19.00;99.90;;;;;;4921832;29;21275;-83
2022/05/19 04:35:30;;;;;;;5.73;4.20;;;20.00;99.90;;;;;;4923821;29;20600;-79
2022/05/19 04:37:57;;;;;;;4.60;4.10;;;20.50;99.90;;;;;;4925939;29;20441;-87
2022/05/19 04:40:23;;;;;;;4.70;3.10;;;20.90;99.90;;;;;;4927691;29;20436;-83
2022/05/19 04:42:49;;;;;;;5.83;2.60;;;22.30;99.90;;;;;;4923781;29;20469;-81
2022/05/19 04:45:16;;;;;;;5.00;2.93;;;22.00;98.50;;;;;;4925921;29;20568;-83
2022/05/19 04:47:43;;;;;;;3.60;3.20;;;22.20;96.80;;;;;;4923448;29;20557;-83
2022/05/19 04:50:09;;;;;;;3.33;2.67;;;22.50;96.00;;;;;;4927701;29;20973;-85
2022/05/19 04:52:35;;;;;;;6.57;3.27;;;22.60;94.80;;;;;;4926002;29;20526;-85
2022/05/19 04:55:01;;;;;;;3.90;3.37;;;;;;;;;;4929874;29;20428;-85
2022/05/19 04:57:27;;;;;;;4.20;3.10;;;22.60;92.30;;;;;;4942139;28;20449;-87
2022/05/19 04:59:52;;;;;;;3.90;3.30;;;22.40;92.70;;;;;;4929463;29;20446;-82
2022/05/19 05:02:18;;;;;;;7.00;3.60;;;22.90;92.90;;;;;;4920453;29;20297;-84
2022/05/19 05:04:43;;;;;;;3.80;2.33;;;23.50;91.40;;;;;;4921340;29;20340;-87
2022/05/19 05:07:09;;;;;;;4.67;2.63;;;;;;;;;;4922397;29;20189;-88
2022/05/19 05:09:36;;;;;;;3.33;2.90;;;;;;;;;;4923401;29;20323;-86
2022/05/19 05:12:02;;;;;;;3.73;2.23;;;24.30;85.10;;;;;;4921189;29;20827;-87
2022/05/19 05:14:28;;;;;;;4.97;2.70;;;;;;;;;;4923566;29;21253;-86
2022/05/19 05:16:54;;;;;;;4.93;2.97;;;24.10;84.20;;;;;;4920178;29;20607;-87
2022/05/19 05:19:22;;;;;;;6.90;2.70;;;24.80;85.40;;;;;;4927930;29;20449;-88
2022/05/19 05:21:54;;;;;;;4.33;2.50;;;24.80;83.00;;;;;;4922226;29;20469;-88
2022/05/19 05:24:20;;;;;;;3.20;2.90;;;25.00;81.80;;;;;;4937696;29;20878;-83
2022/05/19 05:26:46;;;;;;;5.70;3.20;;;;;;;;;;4927287;29;20531;-86
2022/05/19 05:29:12;;;;;;;6.43;3.33;;;;;;;;;;4919534;29;20343;-84
2022/05/19 05:31:38;;;;;;;5.67;2.60;;;25.20;77.10;;;;;;4938417;29;20449;-87
2022/05/19 05:34:03;;;;;;;5.63;2.50;;;25.60;76.70;;;;;;4922299;29;20553;-89
2022/05/19 05:36:29;;;;;;;4.03;2.50;;;25.90;76.20;;;;;;4923751;29;20433;-85
2022/05/19 05:38:55;;;;;;;4.63;2.23;;;26.50;74.10;;;;;;4928308;29;20193;-84
2022/05/19 05:41:20;;;;;;;5.83;3.07;;;28.00;68.20;;;;;;4922078;29;20189;-86
2022/05/19 05:43:46;;;;;;;6.47;2.80;;;28.00;68.70;;;;;;4928067;29;20187;-84
2022/05/19 05:46:14;;;;;;;3.60;3.30;;;28.80;65.60;;;;;;4920258;29;20201;-87
2022/05/19 05:48:40;;;;;;;7.70;3.10;;;29.50;62.30;;;;;;4930757;29;20219;-89
2022/05/19 05:51:07;;;;;;;3.60;2.83;;;30.60;59.90;;;;;;4920043;29;20487;-86
2022/05/19 05:53:35;;;;;;;5.67;2.80;;;31.30;56.70;;;;;;4920462;29;21457;-84
2022/05/19 05:56:02;;;;;;;4.73;2.77;;;31.70;55.60;;;;;;4920018;29;20449;-87
2022/05/19 05:58:27;;;;;;;8.90;3.67;;;32.40;55.10;;;;;;4919822;29;20500;-83
2022/05/19 06:00:54;;;;;;;6.03;2.60;;;32.90;52.90;;;;;;4919031;29;20456;-86
2022/05/19 06:03:19;;;;;;;6.67;4.40;;;33.30;52.80;;;;;;4926974;29;20311;-87
2022/05/19 06:05:45;;;;;;;9.53;5.37;;;;;;;;;;4936626;29;20955;-87
2022/05/19 06:08:12;;;;;;;9.50;5.80;;;;;;;;;;4919539;29;20221;-87
2022/05/19 06:10:38;;;;;;;6.57;5.97;;;;;;;;;;4921458;29;20546;-84
2022/05/19 06:13:04;;;;;;;6.43;5.93;;;35.40;45.70;;;;;;4919823;29;20539;-82
2022/05/19 06:15:30;;;;;;;7.27;6.67;;;;;;;;;;4919912;29;20439;-85
2022/05/19 06:17:57;;;;;;;7.17;6.67;;;35.50;43.90;;;;;;4915005;29;20442;-85
2022/05/19 06:20:23;;;;;;;8.90;8.00;;;35.00;44.80;;;;;;4924619;29;21038;-87
2022/05/19 06:22:49;;;;;;;7.20;6.80;;;;;;;;;;4920008;29;20463;-86
2022/05/19 06:25:18;;;;;;;6.87;6.27;;;34.10;44.90;;;;;;4918560;29;20198;-84
2022/05/19 06:27:44;;;;;;;7.10;6.10;;;33.90;46.10;;;;;;4919274;29;20469;-86
2022/05/19 06:30:12;;;;;;;8.97;6.10;;;34.00;46.50;;;;;;4925926;29;20468;-86
2022/05/19 06:32:39;;;;;;;7.03;5.80;;;34.50;45.90;;;;;;4919383;29;20476;-85
2022/05/19 06:35:06;;;;;;;7.40;6.60;;;34.70;45.60;;;;;;4933739;29;20464;-86
2022/05/19 06:37:32;;;;;;;6.73;6.07;;;34.20;45.20;;;;;;4921593;29;20980;-87
2022/05/19 06:39:58;;;;;;;6.97;6.37;;;;;;;;;;4919916;29;20520;-88
2022/05/19 06:42:24;;;;;;;6.63;6.13;;;;;;;;;;4925647;29;20214;-86
2022/05/19 06:44:50;;;;;;;7.47;6.70;;;35.00;44.60;;;;;;4915844;29;20450;-86
2022/05/19 06:47:16;;;;;;;8.13;6.60;;;35.00;44.30;;;;;;4920209;29;20501;-86
2022/05/19 06:49:44;;;;;;;7.10;6.50;;;35.90;44.10;;;;;;4916385;29;21042;-88
2022/05/19 06:52:21;;;;;;;7.43;6.90;;;36.00;43.90;;;;;;4922774;29;20484;-85
2022/05/19 06:54:51;;;;;;;6.33;5.90;;;35.50;44.40;;;;;;4922193;29;20529;-86
2022/05/19 06:57:19;;;;;;;7.60;6.90;;;35.50;44.90;;;;;;4921829;29;20532;-88
2022/05/19 06:59:46;;;;;;;10.60;7.10;;;;;;;;;;4933180;29;20486;-89
2022/05/19 07:02:12;;;;;;;6.90;6.20;;;;;;;;;;4918305;29;20459;-86
2022/05/19 07:04:39;;;;;;;6.90;6.43;;;35.00;45.30;;;;;;4923171;29;20439;-88
2022/05/19 07:07:04;;;;;;;6.37;5.83;;;;;;;;;;4934529;29;20988;-87
2022/05/19 07:09:31;;;;;;;6.07;5.50;;;;;;;;;;4944883;29;20562;-85
2022/05/19 07:11:57;;;;;;;7.40;6.50;;;;;;;;;;4941999;28;20516;-84
2022/05/19 07:14:23;;;;;;;7.10;6.60;;;;;;;;;;4931777;29;20444;-84
2022/05/19 07:16:49;;;;;;;7.80;7.30;;;35.90;44.00;;;;;;4922598;29;20448;-86
2022/05/19 07:22:00;;;;;;;8.20;7.63;;;35.70;45.00;;;;;;4921986;29;20213;-82
2022/05/19 07:24:26;;;;;;;9.80;9.20;;;36.90;43.60;;;;;;4928907;29;20523;-84
2022/05/19 07:26:54;;;;;;;8.43;7.83;;;37.20;44.00;;;;;;4925999;29;20576;-86
2022/05/19 07:29:21;;;;;;;10.73;9.73;;;37.70;41.70;;;;;;4934340;29;20517;-87
2022/05/19 07:31:48;;;;;;;10.17;9.27;;;37.70;42.30;;;;;;4921996;29;20200;-83
2022/05/19 07:34:16;;;;;;;10.93;9.73;;;36.70;42.70;;;;;;4925934;29;21067;-89
2022/05/19 07:36:41;;;;;;;9.33;8.57;;;34.10;43.00;;;;;;4930701;29;20590;-84
2022/05/19 07:39:08;;;;;;;9.13;8.33;;;35.30;46.00;;;;;;4926454;29;20529;-81
2022/05/19 07:41:34;;;;;;;9.40;8.60;;;36.10;43.30;;;;;;4939225;28;21130;-83
2022/05/19 07:44:01;;;;;;;11.70;9.40;;;36.20;44.30;;;;;;4926716;29;20520;-80
2022/05/19 07:46:30;;;;;;;9.83;9.23;;;36.10;44.10;;;;;;4930298;29;20197;-82
2022/05/19 07:48:56;;;;;;;9.67;8.87;;;36.20;44.50;;;;;;4934293;29;20469;-84
2022/05/19 07:51:23;;;;;;;9.47;8.30;;;34.80;45.10;;;;;;4931317;29;20440;-83
2022/05/19 07:53:50;;;;;;;8.60;7.90;;;34.80;45.80;;;;;;4929757;29;20457;-83
2022/05/19 07:56:15;;;;;;;8.67;8.07;;;35.80;47.40;;;;;;4929794;29;20473;-80
2022/05/19 07:58:41;;;;;;;10.67;9.77;;;36.50;46.50;;;;;;4931340;29;21008;-83
2022/05/19 08:01:07;;;;;;;15.83;14.43;;;37.40;44.80;;;;;;4929531;29;20452;-83
2022/05/19 08:03:34;;;;;;;55.07;33.43;;;39.00;42.60;;;;;;4929613;29;20239;-83
2022/05/19 08:05:59;;;;;;;17.40;15.50;;;38.10;41.00;;;;;;4930924;29;20481;-79
2022/05/19 08:08:25;;;;;;;13.30;12.27;;;36.10;42.20;;;;;;4930991;29;21151;-81
2022/05/19 08:10:53;;;;;;;12.37;11.27;;;36.30;45.70;;;;;;4939830;28;20202;-82
2022/05/19 08:16:03;;;;;;;11.33;10.53;;;37.70;45.20;;;;;;4928588;29;20444;-84
2022/05/19 08:18:29;;;;;;;12.00;11.10;;;39.70;43.90;;;;;;4933499;29;20444;-84
2022/05/19 08:21:04;;;;;;;13.20;12.40;;;41.80;40.70;;;;;;4926978;29;20234;-79
2022/05/19 08:23:33;;;;;;;14.60;13.50;;;42.40;39.60;;;;;;4940535;29;20216;-86
2022/05/19 08:26:00;;;;;;;13.87;12.93;;;40.70;38.80;;;;;;4927834;29;20449;-86
2022/05/19 08:28:29;;;;;;;14.37;13.17;;;42.40;39.20;;;;;;4921050;29;20606;-87
2022/05/19 08:30:58;;;;;;;14.63;13.73;;;42.00;37.60;;;;;;4928427;29;20437;-84
2022/05/19 08:33:24;;;;;;;13.40;12.40;;;42.00;38.70;;;;;;4920486;29;21028;-83
2022/05/19 08:35:50;;;;;;;13.27;12.33;;;40.80;39.30;;;;;;4927763;29;20565;-86
2022/05/19 08:38:15;;;;;;;13.77;12.87;;;41.20;40.30;;;;;;4924735;29;20182;-86
2022/05/19 08:41:02;;;;;;;13.80;13.10;;;40.40;39.50;;;;;;4937172;28;20549;-84
2022/05/19 08:43:40;;;;;;;17.40;16.40;;;41.30;37.90;;;;;;4928402;29;20500;-86
2022/05/19 08:46:06;;;;;;;14.50;13.83;;;41.40;36.80;;;;;;4917964;29;20484;-87
2022/05/19 08:48:35;;;;;;;13.60;12.70;;;41.30;38.50;;;;;;4925502;29;20867;-83
2022/05/19 08:51:04;;;;;;;14.47;13.13;;;38.90;38.40;;;;;;4925647;29;20512;-86
2022/05/19 08:53:36;;;;;;;15.23;14.43;;;40.10;39.60;;;;;;4931686;29;20464;-87
2022/05/19 08:56:17;;;;;;;15.20;14.40;;;41.50;37.10;;;;;;4925720;29;20453;-87
2022/05/19 08:58:51;;;;;;;14.03;13.00;;;40.70;37.40;;;;;;4935045;29;20444;-86
2022/05/19 09:01:17;;;;;;;14.13;13.43;;;;;;;;;;4920726;29;20425;-85
2022/05/19 09:04:11;;;;;;;14.53;13.77;;;39.40;38.50;;;;;;4925342;29;20520;-87
2022/05/19 09:09:50;;;;;;;15.33;14.53;;;40.00;37.70;;;;;;4922848;29;20848;-86
2022/05/19 09:12:19;;;;;;;16.13;15.23;;;42.20;35.90;;;;;;4921148;29;20476;-84
2022/05/19 09:14:45;;;;;;;16.50;15.50;;;;;;;;;;4924624;29;20461;-83
2022/05/19 09:17:12;;;;;;;15.83;14.73;;;41.90;36.10;;;;;;4925606;29;20453;-85
2022/05/19 09:19:49;;;;;;;17.27;16.17;;;41.80;36.70;;;;;;4925723;29;20457;-85
2022/05/19 09:22:21;;;;;;;16.40;15.30;;;41.10;36.00;;;;;;4924167;29;20670;-86
2022/05/19 09:24:50;;;;;;;17.03;16.03;;;41.20;36.30;;;;;;4938287;28;20449;-85
2022/05/19 09:27:16;;;;;;;16.13;14.67;;;;;;;;;;4934545;28;20438;-84
2022/05/19 09:29:49;;;;;;;17.83;15.60;;;40.40;38.50;;;;;;4922565;29;20487;-88
2022/05/19 09:32:37;;;;;;;16.70;15.47;;;40.40;39.00;;;;;;4925651;29;20532;-84
2022/05/19 09:35:20;;;;;;;17.77;16.67;;;40.40;37.20;;;;;;4935691;29;20513;-87
2022/05/19 09:37:49;;;;;;;15.40;14.53;;;40.80;36.00;;;;;;4934207;29;20441;-85
2022/05/19 09:40:28;;;;;;;15.87;14.60;;;40.50;37.10;;;;;;4926987;29;20490;-80
2022/05/19 09:43:04;;;;;;;10.70;10.10;;;39.60;36.60;;;;;;4938259;28;20477;-82
2022/05/19 09:45:37;;;;;;;14.90;14.00;;;38.40;38.20;;;;;;4924580;29;20444;-80
2022/05/19 09:48:10;;;;;;;14.53;13.63;;;38.20;39.70;;;;;;4926529;29;20492;-86
2022/05/19 09:50:46;;;;;;;14.30;13.43;;;37.50;40.80;;;;;;4925608;29;20441;-84
2022/05/19 09:53:21;;;;;;;13.63;12.83;;;36.80;41.90;;;;;;4922693;29;20508;-83
2022/05/19 09:55:59;;;;;;;13.93;13.23;;;38.30;40.80;;;;;;4925238;29;20433;-79
2022/05/19 09:58:31;;;;;;;14.70;13.27;;;38.80;41.60;;;;;;4915895;29;20422;-81
2022/05/19 10:01:08;;;;;;;15.27;14.20;;;39.70;39.00;;;;;;4920549;29;20409;-80
2022/05/19 10:03:58;;;;;;;14.83;13.80;;;40.10;37.90;;;;;;4932780;29;20787;-80
2022/05/19 10:06:37;;;;;;;14.97;14.10;;;41.20;36.80;;;;;;4932910;29;20425;-78
2022/05/19 10:09:10;;;;;;;19.20;18.37;;;41.30;37.00;;;;;;4939363;29;20466;-81
2022/05/19 10:11:49;;;;;;;16.97;15.90;;;40.00;36.20;;;;;;4939205;29;20404;-83
2022/05/19 10:14:17;;;;;;;15.13;14.33;;;39.70;37.20;;;;;;4939860;29;20468;-79
2022/05/19 10:17:04;;;;;;;17.53;16.53;;;39.30;39.10;;;;;;4938835;29;20844;-81
2022/05/19 10:19:39;;;;;;;16.30;15.47;;;40.40;38.60;;;;;;4939122;29;20512;-81
2022/05/19 10:22:26;;;;;;;14.77;13.87;;;41.30;37.70;;;;;;4938776;29;20495;-81
2022/05/19 10:25:04;;;;;;;15.93;14.43;;;40.60;37.40;;;;;;4939156;29;20400;-83
2022/05/19 10:31:07;;;;;;;14.40;13.40;;;40.60;38.00;;;;;;4919867;29;20477;-82
2022/05/19 10:33:59;;;;;;;14.30;13.40;;;39.30;39.30;;;;;;4919291;29;21116;-81
2022/05/19 10:36:45;;;;;;;13.90;13.00;;;36.50;43.40;;;;;;4919892;29;20411;-82
2022/05/19 10:39:42;;;;;;;13.17;12.43;;;35.90;43.50;;;;;;4920074;29;20416;-81
2022/05/19 10:42:17;;;;;;;13.40;12.30;;;35.60;43.60;;;;;;4920406;29;20472;-80
2022/05/19 10:45:02;;;;;;;14.07;13.20;;;35.40;44.50;;;;;;4920210;29;20531;-81
2022/05/19 10:47:47;;;;;;;13.37;12.57;;;34.60;46.50;;;;;;4918467;29;20533;-80
2022/05/19 10:50:33;;;;;;;12.13;11.43;;;34.30;47.30;;;;;;4920431;29;20870;-79
2022/05/19 10:53:32;;;;;;;11.90;10.90;;;33.80;48.80;;;;;;4919022;29;20467;-78
2022/05/19 10:56:03;;;;;;;10.07;9.47;;;33.40;50.40;;;;;;4919454;29;20842;-81
2022/05/19 10:59:06;;;;;;;10.37;9.57;;;33.30;52.00;;;;;;4919294;29;20433;-81
2022/05/19 11:02:04;;;;;;;9.20;8.50;;;32.20;51.40;;;;;;4918971;29;20412;-79
2022/05/19 11:04:48;;;;;;;9.70;9.10;;;32.20;52.80;;;;;;4919636;29;20436;-80
2022/05/19 11:07:33;;;;;;;9.47;8.50;;;31.90;54.10;;;;;;4918916;29;20443;-81
2022/05/19 11:10:08;;;;;;;8.50;7.33;;;31.70;52.60;;;;;;4938209;29;20510;-81
2022/05/19 11:13:03;;;;;;;8.07;7.27;;;30.90;53.90;;;;;;4938449;29;20507;-80
2022/05/19 11:15:42;;;;;;;10.20;6.67;;;30.70;56.10;;;;;;4924082;29;20442;-82
2022/05/19 11:18:28;;;;;;;7.83;7.13;;;31.10;56.60;;;;;;4922178;29;21286;-83
2022/05/19 11:21:12;;;;;;;7.23;6.63;;;30.80;55.20;;;;;;4923513;29;20506;-82
2022/05/19 11:23:59;;;;;;;7.77;7.00;;;31.10;54.10;;;;;;4923222;29;20439;-84
2022/05/19 11:26:32;;;;;;;7.77;7.07;;;31.10;54.00;;;;;;4923768;29;20925;-83
2022/05/19 11:29:23;;;;;;;7.73;7.00;;;31.10;56.50;;;;;;4924364;29;20462;-86
2022/05/19 11:32:08;;;;;;;7.50;7.00;;;30.80;52.70;;;;;;4924802;29;20525;-84
2022/05/19 11:34:33;;;;;;;7.73;7.03;;;30.90;55.30;;;;;;4924167;29;20496;-80
2022/05/19 11:37:06;;;;;;;7.47;6.70;;;31.50;56.70;;;;;;4937827;29;20449;-84
2022/05/19 11:39:46;;;;;;;8.27;7.57;;;31.90;56.10;;;;;;4940954;29;20183;-83
2022/05/19 11:42:46;;;;;;;7.83;7.23;;;32.30;55.10;;;;;;4922287;29;21045;-84
2022/05/19 11:45:36;;;;;;;7.50;7.00;;;32.10;54.40;;;;;;4922496;29;20561;-83
2022/05/19 11:57:45;;;;;;;8.47;6.73;;;31.10;56.10;;;;;;4927456;29;20434;-83
2022/05/19 12:00:11;;;;;;;7.47;6.87;;;30.90;56.50;;;;;;4889515;29;20452;-84
2022/05/19 12:02:48;;;;;;;9.90;7.20;;;31.00;57.20;;;;;;4925700;29;20952;-83
2022/05/19 12:05:28;;;;;;;10.40;8.17;;;31.50;55.00;;;;;;4926032;29;20477;-83
2022/05/19 12:07:57;;;;;;;8.87;8.17;;;32.10;56.10;;;;;;4924107;29;20476;-84
2022/05/19 12:10:31;;;;;;;10.33;8.40;;;32.50;55.20;;;;;;4923197;29;20456;-84
2022/05/19 12:13:00;;;;;;;8.47;7.60;;;32.70;54.90;;;;;;4930194;29;21181;-82
2022/05/19 12:15:53;;;;;;;9.43;8.83;;;33.10;52.80;;;;;;4941882;29;20901;-84
2022/05/19 12:18:27;;;;;;;10.30;9.40;;;32.80;51.50;;;;;;4941633;29;20781;-84
2022/05/19 12:21:19;;;;;;;13.00;9.33;;;32.00;54.40;;;;;;4940908;29;20436;-84
2022/05/19 12:23:45;;;;;;;8.33;7.80;;;31.60;53.80;;;;;;4941248;29;20941;-84
2022/05/19 12:26:16;;;;;;;8.67;7.97;;;31.70;53.80;;;;;;4940641;29;20505;-81
2022/05/19 12:28:49;;;;;;;8.40;7.90;;;32.20;52.40;;;;;;4923699;29;20633;-83
2022/05/19 12:34:32;;;;;;;8.83;7.90;;;32.20;53.90;;;;;;4922835;29;20484;-84
2022/05/19 12:37:09;;;;;;;10.53;8.50;;;31.90;53.20;;;;;;4930465;29;20530;-84
2022/05/19 12:39:51;;;;;;;8.60;7.97;;;31.50;53.40;;;;;;4941347;29;20847;-83
2022/05/19 12:42:25;;;;;;;8.53;7.90;;;31.80;53.10;;;;;;4925240;29;20449;-84
2022/05/19 12:44:56;;;;;;;8.40;7.60;;;31.30;53.60;;;;;;4921536;29;20708;-84
2022/05/19 12:47:30;;;;;;;7.87;6.83;;;31.00;54.90;;;;;;4921271;29;20420;-84
2022/05/19 12:50:01;;;;;;;6.73;6.23;;;30.90;55.30;;;;;;4921566;29;20494;-83
2022/05/19 12:52:54;;;;;;;7.60;7.00;;;30.90;55.70;;;;;;4921071;29;21125;-85
2022/05/19 12:55:31;;;;;;;7.80;7.20;;;30.70;55.50;;;;;;4921064;29;20501;-82
2022/05/19 12:58:18;;;;;;;8.40;6.67;;;30.90;56.00;;;;;;4921197;29;20404;-81
2022/05/19 13:00:44;;;;;;;8.27;7.60;;;30.90;55.10;;;;;;4920117;29;20441;-85
2022/05/19 13:03:17;;;;;;;8.47;7.70;;;30.90;56.80;;;;;;4920705;29;20432;-83
2022/05/19 13:05:55;;;;;;;8.00;7.30;;;30.80;55.90;;;;;;4924667;29;21149;-84
2022/05/19 13:08:35;;;;;;;7.60;6.90;;;30.70;56.10;;;;;;4939259;29;20397;-83
2022/05/19 13:11:04;;;;;;;7.50;6.90;;;30.60;56.00;;;;;;4940348;29;20898;-83
2022/05/19 13:13:36;;;;;;;7.53;6.93;;;30.80;56.00;;;;;;4939412;29;20438;-82
2022/05/19 13:16:09;;;;;;;7.57;7.07;;;31.50;57.80;;;;;;4940114;29;20494;-82
2022/05/19 13:18:39;;;;;;;7.07;6.57;;;32.00;56.10;;;;;;4940278;29;20412;-84
2022/05/19 13:21:06;;;;;;;9.10;7.93;;;32.10;54.60;;;;;;4940613;29;20415;-84
2022/05/19 13:23:33;;;;;;;8.00;7.50;;;32.10;56.40;;;;;;4940593;29;20449;-80
2022/05/19 13:26:04;;;;;;;7.73;7.00;;;32.70;56.80;;;;;;4941669;29;20430;-85
2022/05/19 13:31:22;;;;;;;7.57;6.77;;;31.80;54.60;;;;;;4941806;29;20410;-80
2022/05/19 13:33:51;;;;;;;8.53;7.83;;;31.80;55.70;;;;;;4942019;29;20403;-80
2022/05/19 13:36:28;;;;;;;8.13;7.53;;;32.20;54.90;;;;;;4941329;29;20430;-83
2022/05/19 13:39:12;;;;;;;8.20;7.37;;;32.20;56.80;;;;;;4941104;29;20415;-85